createdAt,value
2016-09-26T00:00:40.299Z,16.47
2016-09-26T00:01:40.331Z,16.42
2016-09-26T00:02:40.356Z,16.49
2016-09-26T00:03:40.361Z,16.35
2016-09-26T00:04:40.376Z,16.39
2016-09-26T00:05:40.397Z,16.33
2016-09-26T00:06:40.423Z,16.39
2016-09-26T00:07:40.448Z,16.38
2016-09-26T00:08:40.458Z,16.36
2016-09-26T00:09:40.481Z,16.32
2016-09-26T00:10:40.505Z,16.32
2016-09-26T00:11:40.516Z,16.32
2016-09-26T00:12:40.556Z,16.28
2016-09-26T00:13:40.559Z,16.32
2016-09-26T00:14:40.584Z,16.31
2016-09-26T00:15:40.601Z,16.29
2016-09-26T00:16:40.621Z,16.29
2016-09-26T00:17:40.647Z,16.29
2016-09-26T00:18:40.688Z,16.28
2016-09-26T00:19:40.683Z,16.31
2016-09-26T00:20:40.711Z,16.24
2016-09-26T00:21:40.721Z,16.24
2016-09-26T00:22:40.748Z,16.21
2016-09-26T00:23:40.767Z,16.2
2016-09-26T00:24:40.792Z,16.2
2016-09-26T00:25:40.793Z,16.24
2016-09-26T00:26:40.827Z,16.17
2016-09-26T00:27:40.861Z,16.26
2016-09-26T00:28:40.863Z,16.29
2016-09-26T00:29:40.878Z,16.29
2016-09-26T00:30:40.912Z,16.28
2016-09-26T00:31:40.930Z,16.23
2016-09-26T00:32:40.953Z,16.28
2016-09-26T00:33:40.980Z,16.24
2016-09-26T00:34:40.991Z,16.2
2016-09-26T00:35:40.999Z,16.17
2016-09-26T00:36:41.026Z,16.17
2016-09-26T00:37:41.049Z,16.2
2016-09-26T00:38:41.068Z,16.09
2016-09-26T00:39:41.100Z,16.15
2016-09-26T00:40:41.116Z,16.12
2016-09-26T00:41:41.125Z,16.01
2016-09-26T00:42:41.163Z,16.05
2016-09-26T00:43:41.173Z,16
2016-09-26T00:44:41.183Z,15.97
2016-09-26T00:45:41.210Z,15.92
2016-09-26T00:46:41.228Z,15.95
2016-09-26T00:47:41.262Z,15.98
2016-09-26T00:48:41.273Z,15.95
2016-09-26T00:49:41.280Z,15.94
2016-09-26T00:50:41.317Z,15.92
2016-09-26T00:51:41.329Z,15.88
2016-09-26T00:52:41.352Z,15.86
2016-09-26T00:53:41.380Z,15.83
2016-09-26T00:54:41.394Z,15.75
2016-09-26T00:55:41.412Z,15.76
2016-09-26T00:56:41.426Z,15.77
2016-09-26T00:57:41.472Z,15.77
2016-09-26T00:58:41.476Z,15.68
2016-09-26T00:59:41.501Z,15.58
2016-09-26T01:00:41.522Z,15.55
2016-09-26T01:01:41.531Z,15.59
2016-09-26T01:02:41.565Z,15.57
2016-09-26T01:03:41.574Z,15.52
2016-09-26T01:04:41.589Z,15.58
2016-09-26T01:05:41.609Z,15.51
2016-09-26T01:06:41.635Z,15.44
2016-09-26T01:07:41.659Z,15.49
2016-09-26T01:08:41.691Z,15.47
2016-09-26T01:09:41.696Z,15.44
2016-09-26T01:10:41.716Z,15.46
2016-09-26T01:11:41.743Z,15.4
2016-09-26T01:12:41.762Z,15.37
2016-09-26T01:13:41.778Z,15.42
2016-09-26T01:14:41.798Z,15.4
2016-09-26T01:15:41.819Z,15.36
2016-09-26T01:16:41.832Z,15.39
2016-09-26T01:17:41.844Z,15.39
2016-09-26T01:18:41.869Z,15.37
2016-09-26T01:19:41.907Z,15.31
2016-09-26T01:20:41.916Z,15.24
2016-09-26T01:21:41.938Z,15.29
2016-09-26T01:22:41.975Z,15.31
2016-09-26T01:23:41.974Z,15.31
2016-09-26T01:24:41.999Z,15.28
2016-09-26T01:25:42.021Z,15.29
2016-09-26T01:26:42.055Z,15.31
2016-09-26T01:27:42.062Z,15.29
2016-09-26T01:28:42.069Z,15.33
2016-09-26T01:29:42.101Z,15.31
2016-09-26T01:30:42.119Z,15.25
2016-09-26T01:31:42.135Z,15.36
2016-09-26T01:32:42.168Z,15.37
2016-09-26T01:33:42.180Z,15.36
2016-09-26T01:34:42.213Z,15.25
2016-09-26T01:35:42.212Z,15.42
2016-09-26T01:36:42.247Z,15.39
2016-09-26T01:37:42.255Z,15.4
2016-09-26T01:38:42.289Z,15.31
2016-09-26T01:39:42.298Z,15.36
2016-09-26T01:40:42.319Z,15.46
2016-09-26T01:41:42.356Z,15.39
2016-09-26T01:42:42.368Z,15.44
2016-09-26T01:43:42.389Z,15.49
2016-09-26T01:44:42.406Z,15.43
2016-09-26T01:45:42.407Z,15.46
2016-09-26T01:46:42.444Z,15.51
2016-09-26T01:47:42.457Z,15.54
2016-09-26T01:48:42.483Z,15.58
2016-09-26T01:49:42.503Z,15.54
2016-09-26T01:50:42.511Z,15.58
2016-09-26T01:51:42.543Z,15.61
2016-09-26T01:52:42.566Z,15.61
2016-09-26T01:53:42.580Z,15.64
2016-09-26T01:54:42.599Z,15.62
2016-09-26T01:55:42.619Z,15.61
2016-09-26T01:56:42.653Z,15.58
2016-09-26T01:57:42.648Z,15.59
2016-09-26T01:58:42.668Z,15.59
2016-09-26T01:59:42.690Z,15.57
2016-09-26T02:00:42.721Z,15.54
2016-09-26T02:01:42.747Z,15.54
2016-09-26T02:02:42.756Z,15.61
2016-09-26T02:03:42.794Z,15.58
2016-09-26T02:04:42.797Z,15.58
2016-09-26T02:05:42.822Z,15.55
2016-09-26T02:06:42.844Z,15.61
2016-09-26T02:07:42.858Z,15.61
2016-09-26T02:08:42.898Z,15.7
2016-09-26T02:09:42.901Z,15.72
2016-09-26T02:10:42.913Z,15.67
2016-09-26T02:11:42.946Z,15.7
2016-09-26T02:12:42.947Z,15.65
2016-09-26T02:13:42.982Z,15.61
2016-09-26T02:14:42.985Z,15.65
2016-09-26T02:15:43.025Z,15.65
2016-09-26T02:16:43.033Z,15.73
2016-09-26T02:17:43.057Z,15.67
2016-09-26T02:18:43.078Z,15.73
2016-09-26T02:19:43.112Z,15.8
2016-09-26T02:20:43.121Z,15.76
2016-09-26T02:21:43.132Z,15.75
2016-09-26T02:22:43.153Z,15.8
2016-09-26T02:23:43.197Z,15.75
2016-09-26T02:24:43.206Z,15.8
2016-09-26T02:25:43.221Z,15.77
2016-09-26T02:26:43.245Z,15.76
2016-09-26T02:27:43.270Z,15.8
2016-09-26T02:28:43.289Z,15.68
2016-09-26T02:29:43.300Z,15.68
2016-09-26T02:30:43.322Z,15.72
2016-09-26T02:31:43.353Z,15.72
2016-09-26T02:32:43.354Z,15.76
2016-09-26T02:33:43.380Z,15.72
2016-09-26T02:34:43.417Z,15.75
2016-09-26T02:35:43.430Z,15.79
2016-09-26T02:36:43.443Z,15.73
2016-09-26T02:37:43.464Z,15.73
2016-09-26T02:38:43.488Z,15.77
2016-09-26T02:39:43.500Z,15.7
2016-09-26T02:40:43.521Z,15.76
2016-09-26T02:41:43.536Z,15.73
2016-09-26T02:42:43.570Z,15.68
2016-09-26T02:43:43.568Z,15.75
2016-09-26T02:44:43.600Z,15.76
2016-09-26T02:45:43.634Z,15.75
2016-09-26T02:46:43.639Z,15.8
2016-09-26T02:47:43.658Z,15.79
2016-09-26T02:48:43.680Z,15.79
2016-09-26T02:49:43.703Z,15.72
2016-09-26T02:50:43.726Z,15.79
2016-09-26T02:51:43.743Z,15.75
2016-09-26T02:52:43.768Z,15.73
2016-09-26T02:53:43.786Z,15.75
2016-09-26T02:54:43.806Z,15.8
2016-09-26T02:55:43.819Z,15.83
2016-09-26T02:56:43.847Z,15.79
2016-09-26T02:57:43.880Z,15.79
2016-09-26T02:58:43.887Z,15.79
2016-09-26T02:59:43.892Z,15.8
2016-09-26T03:00:43.931Z,15.82
2016-09-26T03:01:43.943Z,15.82
2016-09-26T03:02:43.958Z,15.77
2016-09-26T03:03:43.982Z,15.82
2016-09-26T03:04:44.013Z,15.75
2016-09-26T03:05:44.023Z,15.83
2016-09-26T03:06:44.040Z,15.77
2016-09-26T03:07:44.070Z,15.77
2016-09-26T03:08:44.076Z,15.76
2016-09-26T03:09:44.106Z,15.8
2016-09-26T03:10:44.113Z,15.76
2016-09-26T03:11:44.148Z,15.76
2016-09-26T03:12:44.164Z,15.75
2016-09-26T03:13:44.195Z,15.79
2016-09-26T03:14:44.193Z,15.79
2016-09-26T03:15:44.216Z,15.8
2016-09-26T03:16:44.234Z,15.79
2016-09-26T03:17:44.258Z,15.75
2016-09-26T03:18:44.277Z,15.76
2016-09-26T03:19:44.300Z,15.83
2016-09-26T03:20:44.317Z,15.8
2016-09-26T03:21:44.353Z,15.84
2016-09-26T03:22:44.352Z,15.82
2016-09-26T03:23:44.370Z,15.82
2016-09-26T03:24:44.397Z,15.77
2016-09-26T03:25:44.426Z,15.75
2016-09-26T03:26:44.451Z,15.83
2016-09-26T03:27:44.451Z,15.83
2016-09-26T03:28:44.471Z,15.83
2016-09-26T03:29:44.487Z,15.76
2016-09-26T03:30:44.511Z,15.79
2016-09-26T03:31:44.540Z,15.84
2016-09-26T03:32:44.565Z,15.76
2016-09-26T03:33:44.580Z,15.72
2016-09-26T03:34:44.614Z,15.84
2016-09-26T03:35:44.641Z,15.75
2016-09-26T03:36:44.657Z,15.62
2016-09-26T03:37:44.661Z,15.72
2016-09-26T03:38:44.682Z,15.67
2016-09-26T03:39:44.711Z,15.67
2016-09-26T03:40:44.729Z,15.67
2016-09-26T03:41:44.740Z,15.68
2016-09-26T03:42:44.773Z,15.72
2016-09-26T03:43:44.782Z,15.68
2016-09-26T03:44:44.814Z,15.64
2016-09-26T03:45:44.821Z,15.58
2016-09-26T03:46:44.847Z,15.64
2016-09-26T03:47:44.856Z,15.58
2016-09-26T03:48:44.890Z,15.61
2016-09-26T03:49:44.907Z,15.61
2016-09-26T03:50:44.916Z,15.59
2016-09-26T03:51:44.944Z,15.54
2016-09-26T03:52:44.967Z,15.54
2016-09-26T03:53:44.967Z,15.55
2016-09-26T03:54:44.993Z,15.54
2016-09-26T03:55:45.026Z,15.55
2016-09-26T03:56:45.046Z,15.64
2016-09-26T03:57:45.057Z,15.58
2016-09-26T03:58:45.084Z,15.58
2016-09-26T03:59:45.112Z,15.61
2016-09-26T04:01:45.112Z,15.7
2016-09-26T04:02:45.138Z,15.54
2016-09-26T04:03:45.161Z,15.64
2016-09-26T04:04:45.183Z,15.64
2016-09-26T04:05:45.205Z,15.61
2016-09-26T04:06:45.226Z,15.52
2016-09-26T04:07:45.240Z,15.62
2016-09-26T04:08:45.258Z,15.54
2016-09-26T04:09:45.277Z,15.59
2016-09-26T04:10:45.302Z,15.57
2016-09-26T04:11:45.310Z,15.57
2016-09-26T04:12:45.347Z,15.55
2016-09-26T04:13:45.367Z,15.55
2016-09-26T04:14:45.395Z,15.47
2016-09-26T04:15:45.398Z,15.57
2016-09-26T04:16:45.437Z,15.59
2016-09-26T04:17:45.454Z,15.55
2016-09-26T04:18:45.465Z,15.51
2016-09-26T04:19:45.483Z,15.58
2016-09-26T04:20:45.504Z,15.57
2016-09-26T04:21:45.514Z,15.58
2016-09-26T04:22:45.550Z,15.64
2016-09-26T04:23:45.569Z,15.57
2016-09-26T04:24:45.573Z,15.55
2016-09-26T04:25:45.606Z,15.59
2016-09-26T04:26:45.627Z,15.55
2016-09-26T04:27:45.638Z,15.67
2016-09-26T04:28:45.672Z,15.54
2016-09-26T04:29:45.668Z,15.61
2016-09-26T04:30:45.707Z,15.59
2016-09-26T04:31:45.729Z,15.61
2016-09-26T04:32:45.735Z,15.64
2016-09-26T04:33:45.758Z,15.58
2016-09-26T04:34:45.775Z,15.61
2016-09-26T04:35:45.804Z,15.7
2016-09-26T04:36:45.815Z,15.65
2016-09-26T04:37:45.834Z,15.67
2016-09-26T04:38:45.851Z,15.72
2016-09-26T04:39:45.883Z,15.65
2016-09-26T04:40:45.904Z,15.58
2016-09-26T04:41:45.913Z,15.59
2016-09-26T04:42:45.938Z,15.55
2016-09-26T04:43:45.957Z,15.57
2016-09-26T04:44:45.960Z,15.61
2016-09-26T04:45:45.985Z,15.61
2016-09-26T04:46:46.005Z,15.59
2016-09-26T04:47:46.034Z,15.58
2016-09-26T04:48:46.056Z,15.57
2016-09-26T04:49:46.064Z,15.61
2016-09-26T04:50:46.105Z,15.58
2016-09-26T04:51:46.124Z,15.62
2016-09-26T04:52:46.136Z,15.57
2016-09-26T04:53:46.159Z,15.58
2016-09-26T04:54:46.183Z,15.65
2016-09-26T04:55:46.194Z,15.59
2016-09-26T04:56:46.223Z,15.61
2016-09-26T04:57:46.243Z,15.62
2016-09-26T04:58:46.264Z,15.59
2016-09-26T04:59:46.280Z,15.51
2016-09-26T05:00:46.296Z,15.68
2016-09-26T05:01:46.302Z,15.67
2016-09-26T05:02:46.331Z,15.57
2016-09-26T05:03:46.335Z,15.67
2016-09-26T05:04:46.374Z,15.68
2016-09-26T05:05:46.402Z,15.67
2016-09-26T05:06:46.408Z,15.67
2016-09-26T05:07:46.429Z,15.57
2016-09-26T05:08:46.456Z,15.61
2016-09-26T05:09:46.463Z,15.57
2016-09-26T05:10:46.485Z,15.57
2016-09-26T05:11:46.491Z,15.62
2016-09-26T05:12:46.544Z,15.61
2016-09-26T05:13:46.562Z,15.57
2016-09-26T05:14:46.574Z,15.62
2016-09-26T05:15:46.587Z,15.59
2016-09-26T05:16:46.615Z,15.54
2016-09-26T05:17:46.639Z,15.58
2016-09-26T05:18:46.650Z,15.54
2016-09-26T05:19:46.679Z,15.57
2016-09-26T05:20:46.694Z,15.54
2016-09-26T05:21:46.713Z,15.52
2016-09-26T05:22:46.738Z,15.51
2016-09-26T05:23:46.745Z,15.62
2016-09-26T05:24:46.751Z,15.55
2016-09-26T05:25:46.825Z,15.57
2016-09-26T05:26:46.811Z,15.61
2016-09-26T05:27:46.837Z,15.61
2016-09-26T05:28:46.842Z,15.55
2016-09-26T05:29:46.867Z,15.57
2016-09-26T05:30:46.895Z,15.47
2016-09-26T05:31:46.918Z,15.57
2016-09-26T05:32:46.938Z,15.67
2016-09-26T05:33:46.943Z,15.62
2016-09-26T05:34:46.972Z,15.57
2016-09-26T05:35:46.996Z,15.64
2016-09-26T05:36:47.006Z,15.64
2016-09-26T05:37:47.034Z,15.64
2016-09-26T05:38:47.047Z,15.55
2016-09-26T05:39:47.060Z,15.68
2016-09-26T05:40:47.086Z,15.67
2016-09-26T05:41:47.102Z,15.7
2016-09-26T05:42:47.126Z,15.65
2016-09-26T05:43:47.147Z,15.65
2016-09-26T05:44:47.169Z,15.73
2016-09-26T05:45:47.193Z,15.77
2016-09-26T05:46:47.206Z,15.7
2016-09-26T05:47:47.221Z,15.7
2016-09-26T05:48:47.239Z,15.67
2016-09-26T05:49:47.260Z,15.86
2016-09-26T05:50:47.283Z,15.77
2016-09-26T05:51:47.306Z,15.7
2016-09-26T05:52:47.329Z,15.75
2016-09-26T05:53:47.353Z,15.73
2016-09-26T05:54:47.364Z,15.79
2016-09-26T05:55:47.382Z,15.76
2016-09-26T05:56:47.418Z,15.8
2016-09-26T05:57:47.419Z,15.79
2016-09-26T05:58:47.455Z,15.76
2016-09-26T05:59:47.467Z,15.79
2016-09-26T06:00:47.495Z,15.8
2016-09-26T06:01:47.496Z,15.77
2016-09-26T06:02:47.537Z,15.72
2016-09-26T06:03:47.563Z,15.86
2016-09-26T06:04:47.568Z,15.94
2016-09-26T06:05:47.587Z,15.86
2016-09-26T06:06:47.617Z,15.83
2016-09-26T06:07:47.618Z,15.9
2016-09-26T06:08:47.638Z,15.92
2016-09-26T06:09:47.684Z,15.91
2016-09-26T06:10:47.681Z,15.88
2016-09-26T06:11:47.705Z,15.84
2016-09-26T06:12:47.728Z,15.82
2016-09-26T06:13:47.753Z,15.86
2016-09-26T06:14:47.766Z,15.9
2016-09-26T06:15:47.791Z,15.94
2016-09-26T06:16:47.817Z,16
2016-09-26T06:17:47.843Z,15.94
2016-09-26T06:18:47.855Z,15.94
2016-09-26T06:19:47.870Z,15.98
2016-09-26T06:20:47.888Z,15.98
2016-09-26T06:21:47.914Z,16.09
2016-09-26T06:22:47.930Z,16.01
2016-09-26T06:23:47.943Z,15.98
2016-09-26T06:24:47.977Z,16.01
2016-09-26T06:25:48.014Z,16.02
2016-09-26T06:26:48.025Z,15.9
2016-09-26T06:27:48.035Z,15.94
2016-09-26T06:28:48.046Z,16.04
2016-09-26T06:29:48.079Z,16.05
2016-09-26T06:30:48.098Z,16.04
2016-09-26T06:31:48.115Z,16.05
2016-09-26T06:32:48.133Z,16.12
2016-09-26T06:33:48.166Z,16.16
2016-09-26T06:34:48.163Z,16.15
2016-09-26T06:35:48.192Z,16.17
2016-09-26T06:36:48.213Z,16.16
2016-09-26T06:37:48.217Z,16.13
2016-09-26T06:38:48.242Z,16.17
2016-09-26T06:39:48.277Z,16.28
2016-09-26T06:40:48.293Z,16.28
2016-09-26T06:41:48.316Z,16.33
2016-09-26T06:42:48.341Z,16.36
2016-09-26T06:43:48.351Z,16.41
2016-09-26T06:44:48.370Z,16.42
2016-09-26T06:45:48.393Z,16.38
2016-09-26T06:46:48.414Z,16.31
2016-09-26T06:47:48.421Z,16.32
2016-09-26T06:48:48.463Z,16.31
2016-09-26T06:49:48.464Z,16.33
2016-09-26T06:50:48.493Z,16.39
2016-09-26T06:51:48.505Z,16.38
2016-09-26T06:52:48.544Z,16.43
2016-09-26T06:53:48.558Z,16.49
2016-09-26T06:54:48.573Z,16.42
2016-09-26T06:55:48.581Z,16.43
2016-09-26T06:56:48.612Z,16.49
2016-09-26T06:57:48.664Z,16.58
2016-09-26T06:58:48.694Z,16.64
2016-09-26T06:59:48.673Z,16.72
2016-09-26T07:00:48.697Z,16.84
2016-09-26T07:01:48.761Z,16.86
2016-09-26T07:02:48.763Z,16.99
2016-09-26T07:03:48.760Z,16.9
2016-09-26T07:04:48.772Z,17.06
2016-09-26T07:05:48.808Z,17.08
2016-09-26T07:06:48.823Z,17.12
2016-09-26T07:07:48.838Z,17.11
2016-09-26T07:08:48.864Z,17.14
2016-09-26T07:09:48.879Z,17.05
2016-09-26T07:10:48.892Z,16.96
2016-09-26T07:11:48.915Z,16.89
2016-09-26T07:12:48.941Z,16.93
2016-09-26T07:13:48.953Z,17.06
2016-09-26T07:14:48.987Z,17.05
2016-09-26T07:15:48.999Z,17.04
2016-09-26T07:16:49.034Z,17.02
2016-09-26T07:17:49.042Z,17.09
2016-09-26T07:18:49.074Z,17.14
2016-09-26T07:19:49.097Z,17.19
2016-09-26T07:20:49.110Z,17.19
2016-09-26T07:21:49.140Z,17.2
2016-09-26T07:22:49.155Z,17.01
2016-09-26T07:23:49.177Z,17.08
2016-09-26T07:24:49.191Z,17.01
2016-09-26T07:25:49.212Z,16.96
2016-09-26T07:26:49.234Z,16.97
2016-09-26T07:27:49.269Z,16.97
2016-09-26T07:28:49.279Z,16.97
2016-09-26T07:29:49.280Z,16.99
2016-09-26T07:30:49.318Z,16.93
2016-09-26T07:31:49.339Z,16.99
2016-09-26T07:32:49.353Z,16.96
2016-09-26T07:33:49.388Z,16.9
2016-09-26T07:34:49.409Z,16.89
2016-09-26T07:35:49.423Z,16.81
2016-09-26T07:36:49.437Z,16.81
2016-09-26T07:37:49.456Z,16.86
2016-09-26T07:38:49.490Z,16.86
2016-09-26T07:39:49.497Z,16.86
2016-09-26T07:40:49.536Z,16.96
2016-09-26T07:41:49.542Z,17.01
2016-09-26T07:42:49.566Z,17.01
2016-09-26T07:43:49.589Z,17.11
2016-09-26T07:44:49.605Z,17.14
2016-09-26T07:45:49.637Z,17.24
2016-09-26T07:46:49.652Z,17.24
2016-09-26T07:47:49.673Z,17.22
2016-09-26T07:48:49.694Z,17.23
2016-09-26T07:49:49.718Z,17.16
2016-09-26T07:50:49.739Z,17.12
2016-09-26T07:51:49.737Z,17.05
2016-09-26T07:52:49.767Z,17.14
2016-09-26T07:53:49.792Z,16.97
2016-09-26T07:54:49.811Z,17.02
2016-09-26T07:55:49.840Z,16.99
2016-09-26T07:56:49.854Z,16.99
2016-09-26T07:57:49.881Z,16.94
2016-09-26T07:58:49.891Z,16.96
2016-09-26T07:59:49.921Z,17.06
2016-09-26T08:00:49.953Z,17.15
2016-09-26T08:01:49.966Z,17.06
2016-09-26T08:02:49.981Z,17.14
2016-09-26T08:03:49.994Z,17.05
2016-09-26T08:04:50.013Z,17.02
2016-09-26T08:05:50.061Z,16.99
2016-09-26T08:06:50.046Z,17.05
2016-09-26T08:07:50.085Z,16.91
2016-09-26T08:08:50.110Z,16.93
2016-09-26T08:09:50.124Z,16.96
2016-09-26T08:10:50.142Z,16.89
2016-09-26T08:11:50.162Z,16.99
2016-09-26T08:12:50.194Z,17.11
2016-09-26T08:13:50.215Z,17.19
2016-09-26T08:14:50.241Z,17.16
2016-09-26T08:15:50.242Z,17.11
2016-09-26T08:16:50.272Z,17.06
2016-09-26T08:17:50.297Z,17.12
2016-09-26T08:18:50.316Z,16.99
2016-09-26T08:19:50.339Z,17.04
2016-09-26T08:20:50.355Z,16.86
2016-09-26T08:21:50.401Z,16.9
2016-09-26T08:22:50.398Z,16.81
2016-09-26T08:23:50.407Z,16.79
2016-09-26T08:24:50.438Z,16.72
2016-09-26T08:25:50.463Z,16.69
2016-09-26T08:26:50.459Z,16.56
2016-09-26T08:27:50.520Z,16.65
2016-09-26T08:28:50.517Z,16.6
2016-09-26T08:29:50.543Z,16.57
2016-09-26T08:30:50.561Z,16.58
2016-09-26T08:31:50.572Z,16.58
2016-09-26T08:32:50.588Z,16.65
2016-09-26T08:33:50.622Z,16.78
2016-09-26T08:34:50.639Z,16.78
2016-09-26T08:35:50.719Z,16.75
2016-09-26T08:36:50.673Z,16.89
2016-09-26T08:37:50.701Z,16.93
2016-09-26T08:38:50.715Z,16.93
2016-09-26T08:39:50.747Z,16.93
2016-09-26T08:40:50.772Z,16.96
2016-09-26T08:41:50.773Z,16.99
2016-09-26T08:42:50.798Z,17.05
2016-09-26T08:43:50.827Z,17.08
2016-09-26T08:44:50.851Z,16.99
2016-09-26T08:45:50.846Z,16.96
2016-09-26T08:46:50.885Z,16.87
2016-09-26T08:47:50.902Z,16.86
2016-09-26T08:48:50.933Z,16.83
2016-09-26T08:49:50.953Z,16.83
2016-09-26T08:50:50.977Z,16.89
2016-09-26T08:51:51.002Z,16.97
2016-09-26T08:52:51.003Z,17.06
2016-09-26T08:53:51.020Z,17.14
2016-09-26T08:54:51.053Z,17.16
2016-09-26T08:55:51.071Z,17.36
2016-09-26T08:56:51.096Z,17.39
2016-09-26T08:57:51.106Z,17.39
2016-09-26T08:58:51.133Z,17.49
2016-09-26T08:59:51.142Z,17.49
2016-09-26T09:00:51.187Z,17.48
2016-09-26T09:01:51.195Z,17.44
2016-09-26T09:02:51.211Z,17.45
2016-09-26T09:03:51.235Z,17.52
2016-09-26T09:04:51.253Z,17.51
2016-09-26T09:05:51.279Z,17.59
2016-09-26T09:06:51.295Z,17.56
2016-09-26T09:07:51.327Z,17.63
2016-09-26T09:08:51.353Z,17.7
2016-09-26T09:09:51.364Z,17.71
2016-09-26T09:10:51.386Z,17.7
2016-09-26T09:11:51.418Z,17.67
2016-09-26T09:12:51.432Z,17.71
2016-09-26T09:13:51.446Z,17.74
2016-09-26T09:14:51.470Z,17.63
2016-09-26T09:15:51.500Z,17.72
2016-09-26T09:16:51.509Z,17.64
2016-09-26T09:17:51.518Z,17.74
2016-09-26T09:18:51.557Z,17.68
2016-09-26T09:19:51.577Z,17.83
2016-09-26T09:20:51.592Z,17.87
2016-09-26T09:21:51.619Z,17.89
2016-09-26T09:22:51.643Z,17.89
2016-09-26T09:23:51.659Z,17.98
2016-09-26T09:24:51.671Z,17.98
2016-09-26T09:25:51.698Z,17.95
2016-09-26T09:26:51.726Z,17.98
2016-09-26T09:27:51.745Z,17.95
2016-09-26T09:28:51.751Z,18.04
2016-09-26T09:29:51.783Z,18.15
2016-09-26T09:30:51.793Z,18.15
2016-09-26T09:31:51.841Z,18.34
2016-09-26T09:32:51.861Z,18.4
2016-09-26T09:33:51.870Z,18.5
2016-09-26T09:34:51.882Z,18.73
2016-09-26T09:35:51.922Z,18.81
2016-09-26T09:36:51.933Z,18.95
2016-09-26T09:37:51.939Z,19.14
2016-09-26T09:38:51.987Z,19.24
2016-09-26T09:39:52.013Z,19.3
2016-09-26T09:40:52.029Z,19.37
2016-09-26T09:41:52.038Z,19.33
2016-09-26T09:42:52.057Z,19.16
2016-09-26T09:43:52.090Z,19.16
2016-09-26T09:44:52.117Z,19.07
2016-09-26T09:45:52.134Z,18.99
2016-09-26T09:46:52.150Z,19
2016-09-26T09:47:52.159Z,18.95
2016-09-26T09:48:52.201Z,18.95
2016-09-26T09:49:52.220Z,19.04
2016-09-26T09:50:52.236Z,19.04
2016-09-26T09:51:52.246Z,19.04
2016-09-26T09:52:52.284Z,19.02
2016-09-26T09:53:52.313Z,19
2016-09-26T09:54:52.324Z,19.16
2016-09-26T09:55:52.347Z,19.3
2016-09-26T09:56:52.368Z,19.39
2016-09-26T09:57:52.391Z,19.66
2016-09-26T09:58:52.424Z,19.77
2016-09-26T09:59:52.421Z,20
2016-09-26T10:00:52.466Z,20.16
2016-09-26T10:01:52.468Z,20.22
2016-09-26T10:02:52.507Z,20.39
2016-09-26T10:03:52.536Z,20.52
2016-09-26T10:04:52.553Z,20.37
2016-09-26T10:05:52.567Z,20.37
2016-09-26T10:06:52.598Z,20.39
2016-09-26T10:07:52.623Z,20.36
2016-09-26T10:08:52.634Z,20.34
2016-09-26T10:09:52.676Z,20.14
2016-09-26T10:10:52.675Z,19.99
2016-09-26T10:11:52.707Z,19.77
2016-09-26T10:12:52.720Z,19.62
2016-09-26T10:13:52.740Z,19.52
2016-09-26T10:14:52.768Z,19.45
2016-09-26T10:15:52.804Z,19.39
2016-09-26T10:16:52.806Z,19.33
2016-09-26T10:17:52.820Z,19.49
2016-09-26T10:18:52.850Z,19.58
2016-09-26T10:19:52.871Z,19.64
2016-09-26T10:20:52.904Z,19.73
2016-09-26T10:21:52.937Z,19.79
2016-09-26T10:22:52.952Z,19.89
2016-09-26T10:23:52.978Z,20.03
2016-09-26T10:24:52.991Z,20.18
2016-09-26T10:25:53.022Z,20.21
2016-09-26T10:26:53.041Z,20.32
2016-09-26T10:27:53.060Z,20.25
2016-09-26T10:28:53.068Z,20.25
2016-09-26T10:29:53.105Z,20.22
2016-09-26T10:30:53.129Z,20.29
2016-09-26T10:31:53.157Z,20.37
2016-09-26T10:32:53.174Z,20.5
2016-09-26T10:33:53.189Z,20.55
2016-09-26T10:34:53.229Z,20.55
2016-09-26T10:35:53.244Z,20.67
2016-09-26T10:36:53.260Z,20.74
2016-09-26T10:37:53.291Z,20.92
2016-09-26T10:38:53.299Z,21
2016-09-26T10:39:53.335Z,20.9
2016-09-26T10:40:53.351Z,20.95
2016-09-26T10:41:53.369Z,20.96
2016-09-26T10:42:53.395Z,21.11
2016-09-26T10:43:53.437Z,21.14
2016-09-26T10:44:53.451Z,21.25
2016-09-26T10:45:53.453Z,21.37
2016-09-26T10:46:53.490Z,21.39
2016-09-26T10:47:53.520Z,21.33
2016-09-26T10:48:53.522Z,21.27
2016-09-26T10:49:53.556Z,21.3
2016-09-26T10:50:53.576Z,21.3
2016-09-26T10:51:53.616Z,21.32
2016-09-26T10:52:53.633Z,21.3
2016-09-26T10:53:53.652Z,21.2
2016-09-26T10:54:53.676Z,21.03
2016-09-26T10:55:53.689Z,20.96
2016-09-26T10:56:53.722Z,20.93
2016-09-26T10:57:53.746Z,20.96
2016-09-26T10:58:53.759Z,20.82
2016-09-26T10:59:53.787Z,20.5
2016-09-26T11:00:53.808Z,20.32
2016-09-26T11:01:53.843Z,20.34
2016-09-26T11:02:53.860Z,20.21
2016-09-26T11:03:53.884Z,20.26
2016-09-26T11:04:53.890Z,20.09
2016-09-26T11:05:53.934Z,20.11
2016-09-26T11:06:53.946Z,20.1
2016-09-26T11:07:53.959Z,20.03
2016-09-26T11:08:53.989Z,19.99
2016-09-26T11:09:54.010Z,19.96
2016-09-26T11:10:54.038Z,19.85
2016-09-26T11:11:54.052Z,19.73
2016-09-26T11:12:54.066Z,19.62
2016-09-26T11:13:54.099Z,19.62
2016-09-26T11:14:54.127Z,19.56
2016-09-26T11:15:54.149Z,19.56
2016-09-26T11:16:54.167Z,19.59
2016-09-26T11:17:54.195Z,19.64
2016-09-26T11:18:54.217Z,19.66
2016-09-26T11:19:54.236Z,19.76
2016-09-26T11:20:54.260Z,19.77
2016-09-26T11:21:54.274Z,19.85
2016-09-26T11:22:54.309Z,19.86
2016-09-26T11:23:54.330Z,20.03
2016-09-26T11:24:54.336Z,20.14
2016-09-26T11:25:54.361Z,20.21
2016-09-26T11:26:54.393Z,20.5
2016-09-26T11:27:54.419Z,20.63
2016-09-26T11:28:54.439Z,20.85
2016-09-26T11:29:54.458Z,21.03
2016-09-26T11:30:54.474Z,21.09
2016-09-26T11:31:54.505Z,21.33
2016-09-26T11:32:54.525Z,21.51
2016-09-26T11:33:54.551Z,21.67
2016-09-26T11:34:54.581Z,21.7
2016-09-26T11:35:54.597Z,21.82
2016-09-26T11:36:54.619Z,22
2016-09-26T11:37:54.649Z,22.11
2016-09-26T11:38:54.657Z,22.15
2016-09-26T11:39:54.687Z,22.23
2016-09-26T11:40:54.699Z,22.41
2016-09-26T11:41:54.727Z,22.48
2016-09-26T11:42:54.760Z,22.45
2016-09-26T11:43:54.778Z,22.44
2016-09-26T11:44:54.813Z,22.54
2016-09-26T11:45:54.821Z,22.63
2016-09-26T11:46:54.844Z,22.73
2016-09-26T11:47:54.873Z,22.78
2016-09-26T11:48:54.877Z,22.88
2016-09-26T11:49:54.920Z,23.09
2016-09-26T11:50:54.949Z,23
2016-09-26T11:51:54.963Z,22.93
2016-09-26T11:52:54.977Z,22.8
2016-09-26T11:53:55.016Z,22.57
2016-09-26T11:54:55.051Z,22.47
2016-09-26T11:55:55.057Z,22.35
2016-09-26T11:56:55.093Z,22.17
2016-09-26T11:57:55.100Z,22.15
2016-09-26T11:58:55.138Z,22.25
2016-09-26T11:59:55.159Z,22.28
2016-09-26T12:00:55.170Z,22.25
2016-09-26T12:01:55.204Z,22.29
2016-09-26T12:02:55.231Z,22.07
2016-09-26T12:03:55.253Z,22.07
2016-09-26T12:04:55.266Z,21.92
2016-09-26T12:05:55.304Z,21.82
2016-09-26T12:06:55.327Z,21.98
2016-09-26T12:07:55.348Z,22
2016-09-26T12:09:10.205Z,22.13
2016-09-26T12:09:55.381Z,22.11
2016-09-26T12:10:55.420Z,22.26
2016-09-26T12:11:55.445Z,22.3
2016-09-26T12:12:55.474Z,22.35
2016-09-26T12:13:55.484Z,22.5
2016-09-26T12:14:55.716Z,22.51
2016-09-26T12:15:55.520Z,22.57
2016-09-26T12:16:55.559Z,22.6
2016-09-26T12:17:55.582Z,22.57
2016-09-26T12:18:55.602Z,22.57
2016-09-26T12:19:55.626Z,22.69
2016-09-26T12:20:55.651Z,22.66
2016-09-26T12:21:55.677Z,22.75
2016-09-26T12:22:55.704Z,22.8
2016-09-26T12:23:55.725Z,22.75
2016-09-26T12:24:55.739Z,22.81
2016-09-26T12:25:55.764Z,22.93
2016-09-26T12:26:55.796Z,23.08
2016-09-26T12:27:55.800Z,23.15
2016-09-26T12:28:55.831Z,23.27
2016-09-26T12:29:55.860Z,23.25
2016-09-26T12:30:55.891Z,23.27
2016-09-26T12:31:55.915Z,23.23
2016-09-26T12:32:55.938Z,23.24
2016-09-26T12:33:55.959Z,23.06
2016-09-26T12:34:55.992Z,22.88
2016-09-26T12:35:55.991Z,22.65
2016-09-26T12:36:56.031Z,22.43
2016-09-26T12:37:56.049Z,22.44
2016-09-26T12:38:56.090Z,22.32
2016-09-26T12:39:56.099Z,22.06
2016-09-26T12:40:56.113Z,22.14
2016-09-26T12:41:56.154Z,22.11
2016-09-26T12:42:56.176Z,22.26
2016-09-26T12:43:56.270Z,22.04
2016-09-26T12:44:56.214Z,22.07
2016-09-26T12:45:56.241Z,21.83
2016-09-26T12:46:56.262Z,21.69
2016-09-26T12:47:56.292Z,21.69
2016-09-26T12:48:56.313Z,21.51
2016-09-26T12:49:56.343Z,21.43
2016-09-26T12:50:56.353Z,21.42
2016-09-26T12:51:56.387Z,21.46
2016-09-26T12:52:56.396Z,21.51
2016-09-26T12:53:56.424Z,21.66
2016-09-26T12:54:56.460Z,21.76
2016-09-26T12:55:56.477Z,21.72
2016-09-26T12:56:56.512Z,21.83